aviador You're here:

GCLA Decoded Metar

LA PALMA in SPAIN
Report Time2017-12-16 16:30:00
UTC Time2017-12-16 16:48:21
Flight Rules vfr VFR
Wind020° at 13 Gusting to 23 kt
W.Decomp.*RWY 01: 12.4 kt HW 3.8 kt RCW
W.Rank020° ranks 1
Current wind is above 020° avg. (11.2)
Visibility9999 m
Phenomena:N/A
Clouds:Scattered 030 Hf
Expected CloudBase > 1,200 ft AGL from Temp-Dew spread
CeilingNone
Temp21°C (ISA +6)
Dew Point18°C (83% RH)
AAT19.1°C
QNH1022 hPa
Density Alt797 ft
Elevation102 ft
Report Wrong Elevation
Raw Report
GCLA 161630Z 02013G23KT 340V060 9999 SCT030 21/18 Q1022=

Extra information for GCLA:More info

Metar Taf Metar & Taf Last 4 Metars F.Rules Stats Wind Profile Meteogram Temp Stats Airport Information Weather charts Add Link Nearby VenuesMetar ALERT Operation Metar Decoded Social comments